sensor_id;sensor_type;location;lat;lon;timestamp;pressure;altitude;pressure_sealevel;temperature;humidity
29331;BME280;16331;52.528;13.342;2022-09-01T00:02:01;160445.13;;;17.24;100.00
29331;BME280;16331;52.528;13.342;2022-09-01T00:04:31;160487.91;;;17.40;100.00
29331;BME280;16331;52.528;13.342;2022-09-01T00:06:57;160453.41;;;17.27;100.00
29331;BME280;16331;52.528;13.342;2022-09-01T00:09:24;160420.31;;;17.15;100.00
29331;BME280;16331;52.528;13.342;2022-09-01T00:11:53;160406.50;;;17.10;100.00
29331;BME280;16331;52.528;13.342;2022-09-01T00:14:27;160479.63;;;17.37;100.00
29331;BME280;16331;52.528;13.342;2022-09-01T00:16:54;160483.75;;;17.38;100.00
29331;BME280;16331;52.528;13.342;2022-09-01T00:19:21;160465.81;;;17.32;100.00
29331;BME280;16331;52.528;13.342;2022-09-01T00:21:47;160497.56;;;17.44;100.00
29331;BME280;16331;52.528;13.342;2022-09-01T00:24:16;160544.59;;;17.61;100.00
29331;BME280;16331;52.528;13.342;2022-09-01T00:26:42;160514.16;;;17.50;100.00
29331;BME280;16331;52.528;13.342;2022-09-01T00:29:09;160519.72;;;17.52;100.00
29331;BME280;16331;52.528;13.342;2022-09-01T00:31:38;160464.47;;;17.31;100.00
29331;BME280;16331;52.528;13.342;2022-09-01T00:34:04;160486.56;;;17.40;100.00
29331;BME280;16331;52.528;13.342;2022-09-01T00:36:31;160523.84;;;17.53;100.00
29331;BME280;16331;52.528;13.342;2022-09-01T00:38:57;160489.28;;;17.41;100.00
29331;BME280;16331;52.528;13.342;2022-09-01T00:41:26;160489.28;;;17.41;100.00
29331;BME280;16331;52.528;13.342;2022-09-01T00:44:00;160436.84;;;17.21;100.00
29331;BME280;16331;52.528;13.342;2022-09-01T00:46:34;160403.72;;;17.09;100.00
29331;BME280;16331;52.528;13.342;2022-09-01T00:49:05;160420.31;;;17.15;100.00
29331;BME280;16331;52.528;13.342;2022-09-01T00:51:34;160385.81;;;17.03;100.00
29331;BME280;16331;52.528;13.342;2022-09-01T00:54:09;160384.44;;;17.02;100.00
29331;BME280;16331;52.528;13.342;2022-09-01T00:56:40;160373.38;;;16.98;100.00
29331;BME280;16331;52.528;13.342;2022-09-01T00:59:18;160425.78;;;17.17;100.00
29331;BME280;16331;52.528;13.342;2022-09-01T01:01:51;160449.28;;;17.26;100.00
29331;BME280;16331;52.528;13.342;2022-09-01T01:04:18;160409.25;;;17.11;100.00
29331;BME280;16331;52.528;13.342;2022-09-01T01:06:50;160409.25;;;17.11;100.00
29331;BME280;16331;52.528;13.342;2022-09-01T01:09:25;160434.13;;;17.20;100.00
29331;BME280;16331;52.528;13.342;2022-09-01T01:11:52;160407.91;;;17.11;100.00
29331;BME280;16331;52.528;13.342;2022-09-01T01:14:18;160398.22;;;17.07;100.00
29331;BME280;16331;52.528;13.342;2022-09-01T01:16:46;160398.22;;;17.07;100.00
29331;BME280;16331;52.528;13.342;2022-09-01T01:19:39;160366.50;;;16.96;100.00
29331;BME280;16331;52.528;13.342;2022-09-01T01:22:48;160334.75;;;16.84;100.00
29331;BME280;16331;52.528;13.342;2022-09-01T01:25:55;160395.44;;;17.06;100.00
29331;BME280;16331;52.528;13.342;2022-09-01T01:28:31;160380.28;;;17.01;100.00
29331;BME280;16331;52.528;13.342;2022-09-01T01:31:06;160417.53;;;17.14;100.00
29331;BME280;16331;52.528;13.342;2022-09-01T01:33:41;160409.25;;;17.11;100.00
29331;BME280;16331;52.528;13.342;2022-09-01T01:36:12;160395.44;;;17.06;100.00
29331;BME280;16331;52.528;13.342;2022-09-01T01:38:39;160345.81;;;16.88;100.00
29331;BME280;16331;52.528;13.342;2022-09-01T01:41:11;160279.59;;;16.64;100.00
29331;BME280;16331;52.528;13.342;2022-09-01T01:43:39;160304.41;;;16.73;100.00
29331;BME280;16331;52.528;13.342;2022-09-01T01:46:10;160318.22;;;16.78;100.00
29331;BME280;16331;52.528;13.342;2022-09-01T01:48:39;160232.66;;;16.47;100.00
29331;BME280;16331;52.528;13.342;2022-09-01T01:51:09;160202.28;;;16.36;100.00
29331;BME280;16331;52.528;13.342;2022-09-01T01:53:37;160246.47;;;16.52;100.00
29331;BME280;16331;52.528;13.342;2022-09-01T01:56:04;160249.25;;;16.53;100.00
29331;BME280;16331;52.528;13.342;2022-09-01T01:58:31;160185.75;;;16.30;100.00
29331;BME280;16331;52.528;13.342;2022-09-01T02:00:58;160202.28;;;16.36;100.00
29331;BME280;16331;52.528;13.342;2022-09-01T02:03:30;160200.94;;;16.36;100.00
29331;BME280;16331;52.528;13.342;2022-09-01T02:06:01;160286.47;;;16.67;100.00
29331;BME280;16331;52.528;13.342;2022-09-01T02:08:29;160333.34;;;16.84;100.00
29331;BME280;16331;52.528;13.342;2022-09-01T02:10:55;160300.25;;;16.72;100.00
29331;BME280;16331;52.528;13.342;2022-09-01T02:13:24;160249.25;;;16.53;100.00
29331;BME280;16331;52.528;13.342;2022-09-01T02:15:58;160207.81;;;16.38;100.00
29331;BME280;16331;52.528;13.342;2022-09-01T02:18:28;160264.41;;;16.59;100.00
29331;BME280;16331;52.528;13.342;2022-09-01T02:20:56;160221.63;;;16.43;100.00
29331;BME280;16331;52.528;13.342;2022-09-01T02:23:24;160171.94;;;16.25;100.00
29331;BME280;16331;52.528;13.342;2022-09-01T02:25:57;160156.81;;;16.20;100.00
29331;BME280;16331;52.528;13.342;2022-09-01T02:28:25;160160.94;;;16.21;100.00
29331;BME280;16331;52.528;13.342;2022-09-01T02:30:52;160133.38;;;16.11;100.00
29331;BME280;16331;52.528;13.342;2022-09-01T02:33:20;160108.56;;;16.02;100.00
29331;BME280;16331;52.528;13.342;2022-09-01T02:35:56;160126.44;;;16.09;100.00
29331;BME280;16331;52.528;13.342;2022-09-01T02:38:23;160072.72;;;15.89;100.00
29331;BME280;16331;52.528;13.342;2022-09-01T02:40:51;160045.13;;;15.79;100.00
29331;BME280;16331;52.528;13.342;2022-09-01T02:43:19;160023.09;;;15.71;100.00
29331;BME280;16331;52.528;13.342;2022-09-01T02:45:52;160018.94;;;15.69;100.00
29331;BME280;16331;52.528;13.342;2022-09-01T02:48:20;160031.34;;;15.74;100.00
29331;BME280;16331;52.528;13.342;2022-09-01T02:50:49;159981.72;;;15.56;100.00
29331;BME280;16331;52.528;13.342;2022-09-01T02:53:15;159990.03;;;15.59;100.00
29331;BME280;16331;52.528;13.342;2022-09-01T02:55:42;159984.50;;;15.57;100.00
29331;BME280;16331;52.528;13.342;2022-09-01T02:58:09;159985.84;;;15.57;100.00
29331;BME280;16331;52.528;13.342;2022-09-01T03:00:42;159945.94;;;15.43;100.00
29331;BME280;16331;52.528;13.342;2022-09-01T03:03:09;159905.94;;;15.28;100.00
29331;BME280;16331;52.528;13.342;2022-09-01T03:05:38;159941.81;;;15.41;100.00
29331;BME280;16331;52.528;13.342;2022-09-01T03:08:07;159878.38;;;15.18;100.00
29331;BME280;16331;52.528;13.342;2022-09-01T03:10:37;159889.34;;;15.22;100.00
29331;BME280;16331;52.528;13.342;2022-09-01T03:13:08;159861.84;;;15.12;100.00
29331;BME280;16331;52.528;13.342;2022-09-01T03:15:36;159875.63;;;15.17;100.00
29331;BME280;16331;52.528;13.342;2022-09-01T03:18:04;159871.44;;;15.16;100.00
29331;BME280;16331;52.528;13.342;2022-09-01T03:20:32;159841.16;;;15.05;100.00
29331;BME280;16331;52.528;13.342;2022-09-01T03:23:03;159830.16;;;15.01;100.00
29331;BME280;16331;52.528;13.342;2022-09-01T03:25:33;159832.88;;;15.02;100.00
29331;BME280;16331;52.528;13.342;2022-09-01T03:28:02;159856.31;;;15.10;100.00
29331;BME280;16331;52.528;13.342;2022-09-01T03:30:31;159854.91;;;15.10;100.00
29331;BME280;16331;52.528;13.342;2022-09-01T03:33:00;159852.19;;;15.09;100.00
29331;BME280;16331;52.528;13.342;2022-09-01T03:35:28;159828.75;;;15.00;100.00
29331;BME280;16331;52.528;13.342;2022-09-01T03:37:57;159848.06;;;15.07;100.00
29331;BME280;16331;52.528;13.342;2022-09-01T03:40:32;159835.69;;;15.03;100.00
29331;BME280;16331;52.528;13.342;2022-09-01T03:43:00;159813.63;;;14.95;100.00
29331;BME280;16331;52.528;13.342;2022-09-01T03:45:28;159808.09;;;14.93;100.00
29331;BME280;16331;52.528;13.342;2022-09-01T03:47:55;159786.06;;;14.85;100.00
29331;BME280;16331;52.528;13.342;2022-09-01T03:50:23;159743.41;;;14.69;100.00
29331;BME280;16331;52.528;13.342;2022-09-01T03:52:56;159750.25;;;14.72;100.00
29331;BME280;16331;52.528;13.342;2022-09-01T03:55:27;159768.16;;;14.78;100.00
29331;BME280;16331;52.528;13.342;2022-09-01T03:58:00;159707.59;;;14.56;100.00
29331;BME280;16331;52.528;13.342;2022-09-01T04:00:28;159703.47;;;14.55;100.00
29331;BME280;16331;52.528;13.342;2022-09-01T04:02:57;159751.66;;;14.72;100.00
29331;BME280;16331;52.528;13.342;2022-09-01T04:05:26;159761.31;;;14.76;100.00
29331;BME280;16331;52.528;13.342;2022-09-01T04:07:58;159776.44;;;14.81;100.00
29331;BME280;16331;52.528;13.342;2022-09-01T04:10:29;159689.69;;;14.49;100.00
29331;BME280;16331;52.528;13.342;2022-09-01T04:12:58;159662.16;;;14.39;100.00
29331;BME280;16331;52.528;13.342;2022-09-01T04:15:25;159669.06;;;14.42;100.00
29331;BME280;16331;52.528;13.342;2022-09-01T04:17:52;159669.06;;;14.42;100.00
29331;BME280;16331;52.528;13.342;2022-09-01T04:20:49;159680.03;;;14.46;100.00
29331;BME280;16331;52.528;13.342;2022-09-01T04:23:25;159708.94;;;14.57;100.00
29331;BME280;16331;52.528;13.342;2022-09-01T04:26:03;159715.84;;;14.59;100.00
29331;BME280;16331;52.528;13.342;2022-09-01T04:28:38;159667.66;;;14.41;100.00
29331;BME280;16331;52.528;13.342;2022-09-01T04:31:07;159703.47;;;14.55;100.00
29331;BME280;16331;52.528;13.342;2022-09-01T04:33:36;159663.53;;;14.40;100.00
29331;BME280;16331;52.528;13.342;2022-09-01T04:36:25;159669.06;;;14.42;100.00
29331;BME280;16331;52.528;13.342;2022-09-01T04:38:55;159717.25;;;14.60;100.00
29331;BME280;16331;52.528;13.342;2022-09-01T04:41:28;159708.94;;;14.57;100.00
29331;BME280;16331;52.528;13.342;2022-09-01T04:43:58;159634.59;;;14.29;100.00
29331;BME280;16331;52.528;13.342;2022-09-01T04:46:26;159579.53;;;14.09;100.00
29331;BME280;16331;52.528;13.342;2022-09-01T04:48:57;159583.66;;;14.11;100.00
29331;BME280;16331;52.528;13.342;2022-09-01T04:51:24;159609.78;;;14.20;100.00
29331;BME280;16331;52.528;13.342;2022-09-01T04:53:53;159607.06;;;14.19;100.00
29331;BME280;16331;52.528;13.342;2022-09-01T04:56:20;159623.63;;;14.25;100.00
29331;BME280;16331;52.528;13.342;2022-09-01T04:58:49;159634.59;;;14.29;100.00
29331;BME280;16331;52.528;13.342;2022-09-01T05:01:17;159662.16;;;14.39;100.00
29331;BME280;16331;52.528;13.342;2022-09-01T05:03:47;159677.31;;;14.45;100.00
29331;BME280;16331;52.528;13.342;2022-09-01T05:06:21;159678.66;;;14.45;100.00
29331;BME280;16331;52.528;13.342;2022-09-01T05:08:48;159674.53;;;14.44;100.00
29331;BME280;16331;52.528;13.342;2022-09-01T05:11:14;159656.63;;;14.37;100.00
29331;BME280;16331;52.528;13.342;2022-09-01T05:13:48;159706.22;;;14.56;100.00
29331;BME280;16331;52.528;13.342;2022-09-01T05:16:17;159718.59;;;14.60;100.00
29331;BME280;16331;52.528;13.342;2022-09-01T05:18:47;159743.41;;;14.69;100.00
29331;BME280;16331;52.528;13.342;2022-09-01T05:21:19;159799.84;;;14.90;100.00
29331;BME280;16331;52.528;13.342;2022-09-01T05:23:47;159828.75;;;15.00;100.00
29331;BME280;16331;52.528;13.342;2022-09-01T05:26:18;159742.00;;;14.69;100.00
29331;BME280;16331;52.528;13.342;2022-09-01T05:28:46;159739.28;;;14.68;100.00
29331;BME280;16331;52.528;13.342;2022-09-01T05:31:13;159753.00;;;14.73;100.00
29331;BME280;16331;52.528;13.342;2022-09-01T05:33:40;159772.28;;;14.80;100.00
29331;BME280;16331;52.528;13.342;2022-09-01T05:36:11;159780.56;;;14.83;100.00
29331;BME280;16331;52.528;13.342;2022-09-01T05:38:38;159755.78;;;14.74;100.00
29331;BME280;16331;52.528;13.342;2022-09-01T05:41:07;159838.41;;;15.04;100.00
29331;BME280;16331;52.528;13.342;2022-09-01T05:43:34;159901.78;;;15.27;100.00
29331;BME280;16331;52.528;13.342;2022-09-01T05:46:06;159929.31;;;15.37;100.00
29331;BME280;16331;52.528;13.342;2022-09-01T05:48:33;159863.19;;;15.13;100.00
29331;BME280;16331;52.528;13.342;2022-09-01T05:51:05;159838.41;;;15.04;100.00
29331;BME280;16331;52.528;13.342;2022-09-01T05:53:31;159872.84;;;15.16;100.00
29331;BME280;16331;52.528;13.342;2022-09-01T05:55:59;159835.69;;;15.03;100.00
29331;BME280;16331;52.528;13.342;2022-09-01T05:58:31;159852.19;;;15.09;100.00
29331;BME280;16331;52.528;13.342;2022-09-01T06:00:57;159827.41;;;15.00;100.00
29331;BME280;16331;52.528;13.342;2022-09-01T06:03:24;159893.47;;;15.24;100.00
29331;BME280;16331;52.528;13.342;2022-09-01T06:05:52;159894.88;;;15.24;100.00
29331;BME280;16331;52.528;13.342;2022-09-01T06:08:21;159939.03;;;15.40;100.00
29331;BME280;16331;52.528;13.342;2022-09-01T06:10:50;159937.63;;;15.40;100.00
29331;BME280;16331;52.528;13.342;2022-09-01T06:13:18;160023.09;;;15.71;100.00
29331;BME280;16331;52.528;13.342;2022-09-01T06:15:49;160064.44;;;15.86;100.00
29331;BME280;16331;52.528;13.342;2022-09-01T06:18:18;160085.13;;;15.93;100.00
29331;BME280;16331;52.528;13.342;2022-09-01T06:20:47;160082.38;;;15.93;100.00
29331;BME280;16331;52.528;13.342;2022-09-01T06:23:14;160064.44;;;15.86;100.00
29331;BME280;16331;52.528;13.342;2022-09-01T06:25:45;160149.88;;;16.17;100.00
29331;BME280;16331;52.528;13.342;2022-09-01T06:28:15;160272.66;;;16.62;100.00
29331;BME280;16331;52.528;13.342;2022-09-01T06:30:43;160347.16;;;16.89;100.00
29331;BME280;16331;52.528;13.342;2022-09-01T06:33:11;160427.19;;;17.18;100.00
29331;BME280;16331;52.528;13.342;2022-09-01T06:35:40;160406.50;;;17.10;100.00
29331;BME280;16331;52.528;13.342;2022-09-01T06:38:08;160399.56;;;17.08;100.00
29331;BME280;16331;52.528;13.342;2022-09-01T06:40:34;160378.91;;;17.00;100.00
29331;BME280;16331;52.528;13.342;2022-09-01T06:43:01;160307.13;;;16.74;100.00
29331;BME280;16331;52.528;13.342;2022-09-01T06:45:33;160407.91;;;17.11;100.00
29331;BME280;16331;52.528;13.342;2022-09-01T06:47:59;160362.34;;;16.94;100.00
29331;BME280;16331;52.528;13.342;2022-09-01T06:50:26;160400.97;;;17.08;100.00
29331;BME280;16331;52.528;13.342;2022-09-01T06:52:53;160540.41;;;17.59;100.00
29331;BME280;16331;52.528;13.342;2022-09-01T06:55:27;160577.69;;;17.73;100.00
29331;BME280;16331;52.528;13.342;2022-09-01T06:57:58;160514.16;;;17.50;100.00
29331;BME280;16331;52.528;13.342;2022-09-01T07:00:25;160574.94;;;17.72;100.00
29331;BME280;16331;52.528;13.342;2022-09-01T07:02:56;160688.16;;;18.13;100.00
29331;BME280;16331;52.528;13.342;2022-09-01T07:05:23;160831.84;;;18.65;100.00
29331;BME280;16331;52.528;13.342;2022-09-01T07:07:52;160870.59;;;18.79;100.00
29331;BME280;16331;52.528;13.342;2022-09-01T07:10:21;160873.31;;;18.80;100.00
29331;BME280;16331;52.528;13.342;2022-09-01T07:12:52;160912.00;;;18.94;100.00
29331;BME280;16331;52.528;13.342;2022-09-01T07:15:18;160936.88;;;19.03;100.00
29331;BME280;16331;52.528;13.342;2022-09-01T07:17:47;161010.19;;;19.30;100.00
29331;BME280;16331;52.528;13.342;2022-09-01T07:20:17;160833.25;;;18.65;100.00
29331;BME280;16331;52.528;13.342;2022-09-01T07:22:46;160845.66;;;18.70;100.00
29331;BME280;16331;52.528;13.342;2022-09-01T07:25:13;160923.09;;;18.98;100.00
29331;BME280;16331;52.528;13.342;2022-09-01T07:27:41;160950.69;;;19.08;100.00
29331;BME280;16331;52.528;13.342;2022-09-01T07:30:20;160892.69;;;18.87;100.00
29331;BME280;16331;52.528;13.342;2022-09-01T07:32:48;160913.41;;;18.95;100.00
29331;BME280;16331;52.528;13.342;2022-09-01T07:35:17;160934.13;;;19.02;100.00
29331;BME280;16331;52.528;13.342;2022-09-01T07:37:45;160902.31;;;18.91;100.00
29331;BME280;16331;52.528;13.342;2022-09-01T07:40:15;160903.72;;;18.91;100.00
29331;BME280;16331;52.528;13.342;2022-09-01T07:42:46;160842.94;;;18.69;100.00
29331;BME280;16331;52.528;13.342;2022-09-01T07:45:15;160956.22;;;19.10;100.00
29331;BME280;16331;52.528;13.342;2022-09-01T07:47:42;161008.81;;;19.29;100.00
29331;BME280;16331;52.528;13.342;2022-09-01T07:50:11;161037.88;;;19.40;100.00
29331;BME280;16331;52.528;13.342;2022-09-01T07:52:40;160994.91;;;19.24;100.00
29331;BME280;16331;52.528;13.342;2022-09-01T07:55:14;160916.16;;;18.96;100.00
29331;BME280;16331;52.528;13.342;2022-09-01T07:57:43;161000.47;;;19.26;100.00
29331;BME280;16331;52.528;13.342;2022-09-01T08:00:12;160974.19;;;19.17;100.00
29331;BME280;16331;52.528;13.342;2022-09-01T08:02:40;161019.88;;;19.33;100.00
29331;BME280;16331;52.528;13.342;2022-09-01T08:05:10;161123.56;;;19.71;100.00
29331;BME280;16331;52.528;13.342;2022-09-01T08:07:38;161141.53;;;19.77;100.00
29331;BME280;16331;52.528;13.342;2022-09-01T08:10:06;161025.38;;;19.35;100.00
29331;BME280;16331;52.528;13.342;2022-09-01T08:12:33;161046.16;;;19.43;100.00
29331;BME280;16331;52.528;13.342;2022-09-01T08:15:02;161187.19;;;19.94;100.00
29331;BME280;16331;52.528;13.342;2022-09-01T08:17:29;161149.84;;;19.80;100.00
29331;BME280;16331;52.528;13.342;2022-09-01T08:19:55;161075.16;;;19.53;100.00
29331;BME280;16331;52.528;13.342;2022-09-01T08:22:21;161189.94;;;19.95;100.00
29331;BME280;16331;52.528;13.342;2022-09-01T08:24:50;161151.22;;;19.81;100.00
29331;BME280;16331;52.528;13.342;2022-09-01T08:27:17;161264.69;;;20.22;100.00
29331;BME280;16331;52.528;13.342;2022-09-01T08:29:43;161194.09;;;19.96;100.00
29331;BME280;16331;52.528;13.342;2022-09-01T08:32:09;161228.66;;;20.09;98.76
29331;BME280;16331;52.528;13.342;2022-09-01T08:34:36;161293.78;;;20.33;97.61
29331;BME280;16331;52.528;13.342;2022-09-01T08:37:04;161185.81;;;19.93;99.64
29331;BME280;16331;52.528;13.342;2022-09-01T08:39:30;161242.56;;;20.14;100.00
29331;BME280;16331;52.528;13.342;2022-09-01T08:42:13;161263.34;;;20.22;97.64
29331;BME280;16331;52.528;13.342;2022-09-01T08:45:16;161288.22;;;20.31;96.31
29331;BME280;16331;52.528;13.342;2022-09-01T08:47:45;161364.34;;;20.58;95.94
29331;BME280;16331;52.528;13.342;2022-09-01T08:50:11;161344.94;;;20.51;94.62
29331;BME280;16331;52.528;13.342;2022-09-01T08:52:41;161477.88;;;20.99;87.72
29331;BME280;16331;52.528;13.342;2022-09-01T08:55:31;161386.47;;;20.66;89.63
29331;BME280;16331;52.528;13.342;2022-09-01T08:57:59;161307.56;;;20.38;91.79
29331;BME280;16331;52.528;13.342;2022-09-01T09:00:29;161297.91;;;20.34;92.02
29331;BME280;16331;52.528;13.342;2022-09-01T09:03:18;161147.09;;;19.79;90.34
29331;BME280;16331;52.528;13.342;2022-09-01T09:08:55;161495.88;;;21.06;89.10
29331;BME280;16331;52.528;13.342;2022-09-01T09:11:45;161465.38;;;20.95;91.40
29331;BME280;16331;52.528;13.342;2022-09-01T09:17:07;161371.25;;;20.61;87.90
29331;BME280;16331;52.528;13.342;2022-09-01T09:19:42;161376.78;;;20.63;86.64
29331;BME280;16331;52.528;13.342;2022-09-01T09:22:14;161423.81;;;20.80;86.82
29331;BME280;16331;52.528;13.342;2022-09-01T09:24:46;161444.56;;;20.87;87.75
29331;BME280;16331;52.528;13.342;2022-09-01T09:27:28;161436.28;;;20.84;89.75
29331;BME280;16331;52.528;13.342;2022-09-01T09:30:12;161475.13;;;20.98;91.14
29331;BME280;16331;52.528;13.342;2022-09-01T09:33:03;161382.34;;;20.65;88.49
29331;BME280;16331;52.528;13.342;2022-09-01T09:35:39;161617.69;;;21.50;84.16
29331;BME280;16331;52.528;13.342;2022-09-01T09:41:03;161806.16;;;22.18;79.89
29331;BME280;16331;52.528;13.342;2022-09-01T09:43:37;161765.97;;;22.04;81.58
29331;BME280;16331;52.528;13.342;2022-09-01T09:49:17;161753.53;;;21.99;82.59
29331;BME280;16331;52.528;13.342;2022-09-01T09:51:51;161670.31;;;21.69;82.72
29331;BME280;16331;52.528;13.342;2022-09-01T09:54:33;161761.84;;;22.02;77.57
29331;BME280;16331;52.528;13.342;2022-09-01T09:59:47;161732.72;;;21.92;77.12
29331;BME280;16331;52.528;13.342;2022-09-01T10:02:32;161817.22;;;22.22;74.38
29331;BME280;16331;52.528;13.342;2022-09-01T10:05:06;161921.25;;;22.60;76.54
29331;BME280;16331;52.528;13.342;2022-09-01T10:07:46;161853.25;;;22.35;72.64
29331;BME280;16331;52.528;13.342;2022-09-01T10:10:48;161727.16;;;21.90;73.51
29331;BME280;16331;52.528;13.342;2022-09-01T10:13:20;161660.66;;;21.66;68.27
29331;BME280;16331;52.528;13.342;2022-09-01T10:15:50;161819.97;;;22.23;66.19
29331;BME280;16331;52.528;13.342;2022-09-01T10:18:39;161935.06;;;22.65;66.47
29331;BME280;16331;52.528;13.342;2022-09-01T10:23:36;161802.03;;;22.17;69.67
29331;BME280;16331;52.528;13.342;2022-09-01T10:26:08;161696.69;;;21.79;73.64
29331;BME280;16331;52.528;13.342;2022-09-01T10:28:43;161761.84;;;22.02;70.86
29331;BME280;16331;52.528;13.342;2022-09-01T10:31:13;161851.88;;;22.35;68.46
29331;BME280;16331;52.528;13.342;2022-09-01T10:33:40;161749.31;;;21.98;63.60
29331;BME280;16331;52.528;13.342;2022-09-01T10:36:06;161862.97;;;22.39;63.18
29331;BME280;16331;52.528;13.342;2022-09-01T10:38:33;161908.75;;;22.55;65.66
29331;BME280;16331;52.528;13.342;2022-09-01T10:41:00;161839.41;;;22.30;66.98
29331;BME280;16331;52.528;13.342;2022-09-01T10:48:51;161955.91;;;22.72;65.90
29331;BME280;16331;52.528;13.342;2022-09-01T10:53:56;162023.78;;;22.97;63.10
29331;BME280;16331;52.528;13.342;2022-09-01T10:56:47;162018.28;;;22.95;63.66
29331;BME280;16331;52.528;13.342;2022-09-01T11:04:19;161878.19;;;22.44;63.34
29331;BME280;16331;52.528;13.342;2022-09-01T11:06:55;161886.50;;;22.47;62.63
29331;BME280;16331;52.528;13.342;2022-09-01T11:09:42;161689.78;;;21.76;65.36
29331;BME280;16331;52.528;13.342;2022-09-01T11:20:40;161810.31;;;22.20;62.56
29331;BME280;16331;52.528;13.342;2022-09-01T11:23:12;161882.34;;;22.46;59.15
29331;BME280;16331;52.528;13.342;2022-09-01T11:25:57;162380.44;;;24.26;53.31
29331;BME280;16331;52.528;13.342;2022-09-01T11:36:15;161828.34;;;22.26;56.17
29331;BME280;16331;52.528;13.342;2022-09-01T11:38:50;161836.66;;;22.29;58.13
29331;BME280;16331;52.528;13.342;2022-09-01T11:44:25;161993.28;;;22.86;56.49
29331;BME280;16331;52.528;13.342;2022-09-01T11:46:58;162395.69;;;24.32;51.55
29331;BME280;16331;52.528;13.342;2022-09-01T11:49:29;162827.72;;;25.88;46.08
29331;BME280;16331;52.528;13.342;2022-09-01T11:51:57;163128.09;;;26.96;40.02
29331;BME280;16331;52.528;13.342;2022-09-01T11:54:26;163431.53;;;28.05;37.21
29331;BME280;16331;52.528;13.342;2022-09-01T11:56:53;162993.19;;;26.47;40.07
29331;BME280;16331;52.528;13.342;2022-09-01T11:59:36;162590.13;;;25.02;41.96
29331;BME280;16331;52.528;13.342;2022-09-01T12:02:02;162243.00;;;23.76;45.71
29331;BME280;16331;52.528;13.342;2022-09-01T12:04:33;162334.63;;;24.09;45.84
29331;BME280;16331;52.528;13.342;2022-09-01T12:07:07;162119.56;;;23.32;48.22
29331;BME280;16331;52.528;13.342;2022-09-01T12:09:43;162015.47;;;22.94;51.33
29331;BME280;16331;52.528;13.342;2022-09-01T12:12:34;161929.56;;;22.63;54.62
29331;BME280;16331;52.528;13.342;2022-09-01T12:15:24;161903.22;;;22.53;57.80
29331;BME280;16331;52.528;13.342;2022-09-01T12:17:51;161670.31;;;21.69;63.39
29331;BME280;16331;52.528;13.342;2022-09-01T12:20:29;161746.56;;;21.97;64.15
29331;BME280;16331;52.528;13.342;2022-09-01T12:22:56;161813.06;;;22.21;62.45
29331;BME280;16331;52.528;13.342;2022-09-01T12:25:41;161813.06;;;22.21;63.12
29331;BME280;16331;52.528;13.342;2022-09-01T12:28:08;161800.63;;;22.16;63.48
29331;BME280;16331;52.528;13.342;2022-09-01T12:30:38;161890.66;;;22.49;62.65
29331;BME280;16331;52.528;13.342;2022-09-01T12:33:08;162064.00;;;23.12;60.25
29331;BME280;16331;52.528;13.342;2022-09-01T12:35:35;162305.50;;;23.99;55.24
29331;BME280;16331;52.528;13.342;2022-09-01T12:38:23;161987.78;;;22.84;57.23
29331;BME280;16331;52.528;13.342;2022-09-01T12:40:54;162027.94;;;22.99;57.54
29331;BME280;16331;52.528;13.342;2022-09-01T12:43:39;161964.22;;;22.75;58.65
29331;BME280;16331;52.528;13.342;2022-09-01T12:46:11;161817.22;;;22.22;61.40
29331;BME280;16331;52.528;13.342;2022-09-01T12:48:39;161806.16;;;22.18;61.54
29331;BME280;16331;52.528;13.342;2022-09-01T12:51:27;161861.56;;;22.38;60.35
29331;BME280;16331;52.528;13.342;2022-09-01T12:53:59;161759.03;;;22.01;62.43
29331;BME280;16331;52.528;13.342;2022-09-01T12:56:35;161749.31;;;21.98;61.01
29331;BME280;16331;52.528;13.342;2022-09-01T12:59:19;161756.28;;;22.00;60.52
29331;BME280;16331;52.528;13.342;2022-09-01T13:01:48;162048.78;;;23.06;58.71
29331;BME280;16331;52.528;13.342;2022-09-01T13:04:29;162702.66;;;25.42;49.59
29331;BME280;16331;52.528;13.342;2022-09-01T13:07:03;163428.69;;;28.04;41.29
29331;BME280;16331;52.528;13.342;2022-09-01T13:09:30;163428.69;;;28.04;41.18
29331;BME280;16331;52.528;13.342;2022-09-01T13:12:10;163324.31;;;27.67;40.31
29331;BME280;16331;52.528;13.342;2022-09-01T13:14:36;163297.88;;;27.57;40.36
29331;BME280;16331;52.528;13.342;2022-09-01T13:17:02;163466.31;;;28.18;38.94
29331;BME280;16331;52.528;13.342;2022-09-01T13:19:29;163094.75;;;26.84;40.18
29331;BME280;16331;52.528;13.342;2022-09-01T13:21:55;162994.53;;;26.48;40.63
29331;BME280;16331;52.528;13.342;2022-09-01T13:24:21;162858.28;;;25.99;42.61
29331;BME280;16331;52.528;13.342;2022-09-01T13:26:48;162830.47;;;25.89;43.98
29331;BME280;16331;52.528;13.342;2022-09-01T13:29:20;162737.38;;;25.55;45.96
29331;BME280;16331;52.528;13.342;2022-09-01T13:31:48;162788.81;;;25.74;45.57
29331;BME280;16331;52.528;13.342;2022-09-01T13:34:15;162472.03;;;24.59;48.07
29331;BME280;16331;52.528;13.342;2022-09-01T13:36:41;162413.72;;;24.38;48.74
29331;BME280;16331;52.528;13.342;2022-09-01T13:39:07;162200.00;;;23.61;51.19
29331;BME280;16331;52.528;13.342;2022-09-01T13:41:33;162247.16;;;23.78;51.77
29331;BME280;16331;52.528;13.342;2022-09-01T13:43:59;162108.44;;;23.28;53.96